Time;durP1;ratioP1;P1;durP2;ratioP2;P2;SDS_P1;SDS_P2;PMS_P1;PMS_P2;Temp;Humidity;BMP_temperature;BMP_pressure;BME280_temperature;BME280_humidity;BME280_pressure;Samples;Min_cycle;Max_cycle;Signal;HPM_P1;HPM_P2
2022/09/23 00:02:11;;;;;;;5.67;4.40;;;;;;;;;;5076151;28;20806;-50
2022/09/23 00:04:38;;;;;;;4.50;4.10;;;;;;;;;;5076452;28;20786;-53
2022/09/23 00:07:05;;;;;;;5.30;3.65;;;;;;;;;;5076148;28;20538;-56
2022/09/23 00:09:32;;;;;;;3.60;3.30;;;;;;;;;;5076030;28;20189;-54
2022/09/23 00:11:59;;;;;;;4.22;3.83;;;;;;;;;;5075891;28;20195;-50
2022/09/23 00:14:27;;;;;;;3.05;2.85;;;;;;;;;;5075822;28;20316;-53
2022/09/23 00:16:54;;;;;;;3.90;2.87;;;;;;;;;;5075775;28;20195;-50
2022/09/23 00:19:21;;;;;;;3.80;3.50;;;;;;;;;;5075735;28;20792;-54
2022/09/23 00:21:48;;;;;;;3.30;3.00;;;;;;;;;;5075587;28;20690;-54
2022/09/23 00:24:15;;;;;;;5.03;3.47;;;;;;;;;;5075777;28;20609;-55
2022/09/23 00:26:43;;;;;;;3.30;2.92;;;;;;;;;;5075822;28;20217;-55
2022/09/23 00:29:10;;;;;;;3.35;2.90;;;;;;;;;;5075750;28;20197;-53
2022/09/23 00:31:38;;;;;;;3.40;3.20;;;;;;;;;;5075512;28;20623;-55
2022/09/23 00:34:05;;;;;;;3.47;3.17;;;;;;;;;;5075393;28;20315;-55
2022/09/23 00:36:32;;;;;;;3.35;3.08;;;;;;;;;;5075605;28;20185;-55
2022/09/23 00:38:59;;;;;;;4.32;2.80;;;;;;;;;;5074336;28;20189;-56
2022/09/23 00:41:26;;;;;;;3.42;3.22;;;;;;;;;;5075332;28;20200;-54
2022/09/23 00:43:54;;;;;;;3.47;3.20;;;;;;;;;;5075348;28;20190;-55
2022/09/23 00:46:22;;;;;;;4.65;3.72;;;;;;;;;;5075192;28;20645;-56
2022/09/23 00:48:53;;;;;;;4.82;3.08;;;;;;;;;;5075370;28;20273;-53
2022/09/23 00:51:23;;;;;;;3.25;3.00;;;;;;;;;;5075350;28;20189;-54
2022/09/23 00:53:51;;;;;;;5.65;3.85;;;;;;;;;;5075154;28;20311;-54
2022/09/23 00:56:20;;;;;;;3.33;3.03;;;;;;;;;;5075135;28;20597;-54
2022/09/23 00:58:47;;;;;;;3.78;3.10;;;;;;;;;;5074944;28;20185;-53
2022/09/23 01:01:14;;;;;;;5.70;3.50;;;;;;;;;;5075223;28;20185;-57
2022/09/23 01:03:43;;;;;;;3.55;3.25;;;;;;;;;;5075022;28;20718;-56
2022/09/23 01:06:11;;;;;;;4.10;3.70;;;;;;;;;;5075035;28;20189;-55
2022/09/23 01:08:39;;;;;;;4.82;3.35;;;;;;;;;;5074932;28;20193;-55
2022/09/23 01:11:10;;;;;;;6.72;3.65;;;;;;;;;;5074910;28;20579;-56
2022/09/23 01:13:41;;;;;;;3.88;3.30;;;;;;;;;;5074677;28;20194;-56
2022/09/23 01:16:10;;;;;;;3.85;3.58;;;;;;;;;;5074891;28;20300;-55
2022/09/23 01:18:42;;;;;;;4.10;3.70;;;;;;;;;;5074825;28;20238;-56
2022/09/23 01:21:15;;;;;;;4.25;3.45;;;;;;;;;;5074557;28;20355;-56
2022/09/23 01:24:07;;;;;;;3.92;3.50;;;;;;;;;;5074989;28;20232;-55
2022/09/23 01:26:47;;;;;;;4.50;3.35;;;;;;;;;;5074763;28;20196;-55
2022/09/23 01:29:26;;;;;;;4.85;3.35;;;;;;;;;;5074537;28;20189;-55
2022/09/23 01:31:59;;;;;;;4.05;3.55;;;;;;;;;;5074468;28;20189;-51
2022/09/23 01:34:31;;;;;;;9.75;4.15;;;;;;;;;;5074358;28;20193;-51
2022/09/23 01:37:02;;;;;;;4.13;3.70;;;;;;;;;;5074515;28;20280;-53
2022/09/23 01:39:34;;;;;;;3.35;3.15;;;;;;;;;;5074341;28;20208;-50
2022/09/23 01:42:03;;;;;;;3.92;3.40;;;;;;;;;;5074173;28;20197;-50
2022/09/23 01:44:33;;;;;;;3.20;3.00;;;;;;;;;;5074064;28;20213;-53
2022/09/23 01:47:09;;;;;;;3.55;3.25;;;;;;;;;;5074140;28;20196;-50
2022/09/23 01:49:40;;;;;;;3.63;3.30;;;;;;;;;;5074265;28;20193;-51
2022/09/23 01:52:09;;;;;;;4.03;3.63;;;;;;;;;;5073494;28;20729;-50
2022/09/23 01:54:38;;;;;;;3.53;3.33;;;;;;;;;;5074057;28;20857;-52
2022/09/23 01:57:08;;;;;;;4.65;3.28;;;;;;;;;;5073848;28;20204;-52
2022/09/23 01:59:36;;;;;;;2.63;2.53;;;;;;;;;;5073972;28;20189;-54
2022/09/23 02:02:07;;;;;;;3.25;2.95;;;;;;;;;;5073911;28;20185;-51
2022/09/23 02:04:38;;;;;;;3.28;2.97;;;;;;;;;;5073857;28;20220;-55
2022/09/23 02:07:08;;;;;;;3.08;2.88;;;;;;;;;;5073852;28;20196;-57
2022/09/23 02:09:37;;;;;;;3.23;3.03;;;;;;;;;;5073730;28;20276;-56
2022/09/23 02:12:07;;;;;;;3.42;2.90;;;;;;;;;;5073466;28;20446;-54
2022/09/23 02:14:37;;;;;;;5.15;3.45;;;;;;;;;;5073784;28;20606;-55
2022/09/23 02:17:09;;;;;;;3.13;2.92;;;;;;;;;;5073683;28;20547;-51
2022/09/23 02:19:40;;;;;;;4.78;3.40;;;;;;;;;;5073565;28;20279;-56
2022/09/23 02:22:09;;;;;;;3.25;2.92;;;;;;;;;;5073245;28;20573;-54
2022/09/23 02:24:37;;;;;;;3.70;3.25;;;;;;;;;;5073484;28;20304;-55
2022/09/23 02:27:08;;;;;;;3.50;3.20;;;;;;;;;;5073475;28;20189;-53
2022/09/23 02:29:39;;;;;;;3.53;3.20;;;;;;;;;;5073465;28;20197;-56
2022/09/23 02:32:12;;;;;;;3.55;2.83;;;;;;;;;;5073232;28;20644;-52
2022/09/23 02:34:42;;;;;;;4.20;3.25;;;;;;;;;;5073169;28;20185;-54
2022/09/23 02:37:15;;;;;;;4.80;3.50;;;;;;;;;;5073359;28;20215;-54
2022/09/23 02:39:49;;;;;;;5.07;3.10;;;;;;;;;;5073320;28;20189;-53
2022/09/23 02:42:19;;;;;;;3.70;3.50;;;;;;;;;;5073132;28;20284;-55
2022/09/23 02:44:46;;;;;;;4.30;3.90;;;;;;;;;;5073034;28;20223;-55
2022/09/23 02:47:14;;;;;;;3.38;3.08;;;;;;;;;;5073027;28;20623;-55
2022/09/23 02:49:41;;;;;;;4.07;3.13;;;;;;;;;;5073179;28;20617;-54
2022/09/23 02:52:10;;;;;;;5.60;3.05;;;;;;;;;;5073062;28;20200;-55
2022/09/23 02:54:38;;;;;;;3.30;3.03;;;;;;;;;;5073003;28;20556;-54
2022/09/23 02:57:06;;;;;;;3.30;3.00;;;;;;;;;;5072935;28;20635;-55
2022/09/23 02:59:34;;;;;;;3.50;3.20;;;;;;;;;;5072827;28;20189;-56
2022/09/23 03:02:16;;;;;;;2.50;2.30;;;;;;;;;;5072243;28;20537;-51
2022/09/23 03:04:49;;;;;;;3.85;3.30;;;;;;;;;;5072898;28;20300;-54
2022/09/23 03:07:18;;;;;;;4.95;3.40;;;;;;;;;;5072953;28;20275;-56
2022/09/23 03:09:50;;;;;;;3.53;3.22;;;;;;;;;;5072670;28;20283;-52
2022/09/23 03:12:21;;;;;;;3.20;3.00;;;;;;;;;;5072612;28;20279;-54
2022/09/23 03:14:50;;;;;;;4.70;4.10;;;;;;;;;;5072973;28;20189;-54
2022/09/23 03:17:20;;;;;;;3.20;3.00;;;;;;;;;;5072816;28;20192;-55
2022/09/23 03:19:50;;;;;;;3.55;3.25;;;;;;;;;;5073110;28;20543;-53
2022/09/23 03:22:18;;;;;;;4.53;3.15;;;;;;;;;;5072522;28;20225;-54
2022/09/23 03:24:46;;;;;;;3.20;2.80;;;;;;;;;;5072556;28;20710;-54
2022/09/23 03:27:16;;;;;;;3.22;2.90;;;;;;;;;;5072746;28;20311;-55
2022/09/23 03:29:44;;;;;;;3.10;2.90;;;;;;;;;;5072762;28;20201;-54
2022/09/23 03:32:11;;;;;;;5.00;2.83;;;;;;;;;;5072614;28;20189;-53
2022/09/23 03:34:39;;;;;;;3.85;3.55;;;;;;;;;;5072681;28;20548;-54
2022/09/23 03:37:13;;;;;;;5.97;3.50;;;;;;;;;;5072347;28;20204;-50
2022/09/23 03:39:41;;;;;;;3.63;3.17;;;;;;;;;;5072643;28;20565;-51
2022/09/23 03:42:15;;;;;;;3.63;3.33;;;;;;;;;;5072749;28;20609;-54
2022/09/23 03:44:43;;;;;;;2.80;2.60;;;;;;;;;;5072537;28;20217;-54
2022/09/23 03:47:11;;;;;;;3.72;3.42;;;;;;;;;;5072738;28;20189;-55
2022/09/23 03:49:39;;;;;;;5.30;3.28;;;;;;;;;;5072364;28;20190;-53
2022/09/23 03:52:06;;;;;;;4.32;3.45;;;;;;;;;;5072560;28;20197;-54
2022/09/23 03:54:34;;;;;;;5.80;3.25;;;;;;;;;;5072442;28;20197;-50
2022/09/23 03:57:01;;;;;;;4.25;3.20;;;;;;;;;;5072371;28;20189;-52
2022/09/23 03:59:30;;;;;;;5.43;3.45;;;;;;;;;;5072243;28;20196;-50
2022/09/23 04:01:58;;;;;;;4.35;3.47;;;;;;;;;;5072251;28;20189;-50
2022/09/23 04:04:26;;;;;;;6.07;3.30;;;;;;;;;;5072108;28;20228;-50
2022/09/23 04:06:53;;;;;;;3.42;3.22;;;;;;;;;;5072329;28;20190;-51
2022/09/23 04:09:20;;;;;;;4.70;3.15;;;;;;;;;;5072325;28;20616;-48
2022/09/23 04:11:49;;;;;;;4.57;3.35;;;;;;;;;;5072058;28;20189;-50
2022/09/23 04:14:17;;;;;;;6.30;4.72;;;;;;;;;;5073961;28;20196;-51
2022/09/23 04:16:44;;;;;;;7.03;4.22;;;;;;;;;;5075679;28;20196;-52
2022/09/23 04:19:11;;;;;;;4.43;3.65;;;;;;;;;;5075907;28;20189;-51
2022/09/23 04:21:38;;;;;;;4.18;3.58;;;;;;;;;;5075620;28;20571;-49
2022/09/23 04:24:05;;;;;;;4.82;4.40;;;;;;;;;;5075497;28;20680;-49
2022/09/23 04:26:33;;;;;;;4.30;3.90;;;;;;;;;;5075726;28;20525;-51
2022/09/23 04:29:02;;;;;;;3.92;3.53;;;;;;;;;;5075523;28;20185;-51
2022/09/23 04:31:29;;;;;;;3.80;3.40;;;;;;;;;;5075388;28;20307;-51
2022/09/23 04:33:57;;;;;;;6.60;4.40;;;;;;;;;;5075583;28;20219;-49
2022/09/23 04:36:24;;;;;;;5.65;3.67;;;;;;;;;;5075412;28;20189;-53
2022/09/23 04:38:51;;;;;;;4.25;3.85;;;;;;;;;;5075545;28;20192;-50
2022/09/23 04:41:19;;;;;;;4.47;3.83;;;;;;;;;;5075201;28;20675;-50
2022/09/23 04:43:46;;;;;;;12.32;4.50;;;;;;;;;;5075188;28;20556;-50
2022/09/23 04:46:15;;;;;;;4.78;4.10;;;;;;;;;;5075087;28;20189;-54
2022/09/23 04:48:42;;;;;;;7.82;4.22;;;;;;;;;;5075294;28;20185;-51
2022/09/23 04:51:10;;;;;;;5.03;3.63;;;;;;;;;;5075215;28;20189;-53
2022/09/23 04:53:39;;;;;;;5.90;4.15;;;;;;;;;;5075487;28;20190;-53
2022/09/23 04:56:08;;;;;;;6.72;4.35;;;;;;;;;;5075067;28;20203;-49
2022/09/23 04:58:35;;;;;;;6.32;4.30;;;;;;;;;;5074918;28;20247;-49
2022/09/23 05:01:08;;;;;;;3.95;3.20;;;;;;;;;;5074981;28;20193;-49
2022/09/23 05:03:37;;;;;;;7.47;4.47;;;;;;;;;;5075089;28;20193;-50
2022/09/23 05:06:04;;;;;;;8.10;4.32;;;;;;;;;;5074845;28;20696;-51
2022/09/23 05:08:31;;;;;;;4.00;3.45;;;;;;;;;;5074796;28;20216;-50
2022/09/23 05:10:58;;;;;;;7.43;4.50;;;;;;;;;;5074592;28;20200;-51
2022/09/23 05:13:25;;;;;;;8.15;3.75;;;;;;;;;;5074879;28;20205;-51
2022/09/23 05:15:57;;;;;;;61.10;30.00;;;;;;;;;;5074801;28;20212;-52
2022/09/23 05:18:24;;;;;;;8.07;4.60;;;;;;;;;;5074698;28;20193;-51
2022/09/23 05:20:55;;;;;;;5.75;3.55;;;;;;;;;;5074359;28;20685;-50
2022/09/23 05:23:22;;;;;;;7.28;4.43;;;;;;;;;;5074508;28;20246;-49
2022/09/23 05:25:49;;;;;;;4.97;3.70;;;;;;;;;;5073802;28;20227;-49
2022/09/23 05:28:18;;;;;;;6.22;4.82;;;;;;;;;;5074505;28;20190;-51
2022/09/23 05:30:45;;;;;;;4.05;3.55;;;;;;;;;;5074553;28;20201;-50
2022/09/23 05:33:13;;;;;;;7.10;4.15;;;;;;;;;;5074246;28;20288;-50
2022/09/23 05:35:40;;;;;;;7.68;5.35;;;;;;;;;;5074239;28;20198;-49
2022/09/23 05:38:08;;;;;;;4.72;4.28;;;;;;;;;;5074099;28;20730;-49
2022/09/23 05:40:35;;;;;;;6.18;4.70;;;;;;;;;;5074240;28;20199;-52
2022/09/23 05:43:02;;;;;;;5.60;4.80;;;;;;;;;;5074197;28;20197;-53
2022/09/23 05:45:30;;;;;;;14.60;5.07;;;;;;;;;;5074004;28;20358;-52
2022/09/23 05:47:57;;;;;;;7.45;6.45;;;;;;;;;;5073832;28;20242;-51
2022/09/23 05:50:24;;;;;;;10.95;5.43;;;;;;;;;;5073919;28;20203;-49
2022/09/23 05:52:51;;;;;;;10.50;6.75;;;;;;;;;;5073754;28;20189;-51
2022/09/23 05:55:19;;;;;;;9.38;7.40;;;;;;;;;;5073883;28;20555;-49
2022/09/23 05:57:46;;;;;;;10.35;7.50;;;;;;;;;;5073866;28;20221;-51
2022/09/23 06:00:14;;;;;;;10.43;6.97;;;;;;;;;;5073709;28;20193;-50
2022/09/23 06:02:41;;;;;;;7.05;6.45;;;;;;;;;;5073565;28;20234;-52
2022/09/23 06:05:08;;;;;;;6.82;6.28;;;;;;;;;;5073405;28;20219;-52
2022/09/23 06:07:36;;;;;;;6.95;6.35;;;;;;;;;;5073322;28;20671;-50
2022/09/23 06:10:04;;;;;;;10.90;5.22;;;;;;;;;;5073630;28;20189;-54
2022/09/23 06:12:33;;;;;;;6.45;5.75;;;;;;;;;;5073390;28;20196;-50
2022/09/23 06:15:00;;;;;;;12.27;5.68;;;;;;;;;;5073521;28;20376;-50
2022/09/23 06:17:27;;;;;;;5.40;4.90;;;;;;;;;;5073388;28;20212;-53
2022/09/23 06:19:54;;;;;;;5.03;4.53;;;;;;;;;;5073299;28;20193;-52
2022/09/23 06:22:21;;;;;;;6.33;4.57;;;;;;;;;;5073075;28;20479;-50
2022/09/23 06:24:48;;;;;;;5.40;4.43;;;;;;;;;;5073081;28;20475;-52
2022/09/23 06:27:15;;;;;;;5.50;5.00;;;;;;;;;;5073310;28;20185;-49
2022/09/23 06:29:43;;;;;;;5.07;3.90;;;;;;;;;;5073259;28;20189;-54
2022/09/23 06:32:10;;;;;;;4.40;4.10;;;;;;;;;;5072876;28;20673;-50
2022/09/23 06:34:38;;;;;;;6.40;5.45;;;;;;;;;;5073267;28;20200;-51
2022/09/23 06:37:05;;;;;;;5.47;4.18;;;;;;;;;;5073161;28;20704;-49
2022/09/23 06:39:32;;;;;;;5.55;4.45;;;;;;;;;;5072961;28;20196;-55
2022/09/23 06:41:59;;;;;;;5.10;4.55;;;;;;;;;;5072775;28;20649;-50
2022/09/23 06:44:27;;;;;;;4.32;3.92;;;;;;;;;;5072790;28;20189;-51
2022/09/23 06:46:55;;;;;;;4.43;4.13;;;;;;;;;;5072637;28;20228;-55
2022/09/23 06:49:22;;;;;;;4.97;4.55;;;;;;;;;;5073043;28;20189;-51
2022/09/23 06:51:49;;;;;;;6.38;5.50;;;;;;;;;;5072948;28;20185;-52
2022/09/23 06:54:16;;;;;;;5.47;4.97;;;;;;;;;;5072857;28;20185;-51
2022/09/23 06:56:43;;;;;;;7.30;6.40;;;;;;;;;;5072772;28;20189;-49
2022/09/23 06:59:11;;;;;;;7.07;4.85;;;;;;;;;;5072572;28;20196;-50
2022/09/23 07:01:38;;;;;;;8.43;4.80;;;;;;;;;;5072744;28;20193;-50
2022/09/23 07:04:07;;;;;;;4.90;4.50;;;;;;;;;;5072552;28;20954;-50
2022/09/23 07:06:34;;;;;;;4.80;4.40;;;;;;;;;;5072642;28;20490;-49
2022/09/23 07:09:02;;;;;;;5.20;4.47;;;;;;;;;;5072652;28;20191;-51
2022/09/23 07:11:29;;;;;;;4.57;4.27;;;;;;;;;;5072502;28;20456;-50
2022/09/23 07:13:55;;;;;;;4.90;4.57;;;;;;;;;;5072389;28;20457;-54
2022/09/23 07:16:22;;;;;;;4.47;4.07;;;;;;;;;;5072688;28;20451;-51
2022/09/23 07:18:50;;;;;;;3.70;3.40;;;;;;;;;;5072685;28;20776;-50
2022/09/23 07:21:19;;;;;;;4.33;4.03;;;;;;;;;;5072310;28;20978;-54
2022/09/23 07:23:48;;;;;;;4.70;3.90;;;;;;;;;;5072576;28;20516;-52
2022/09/23 07:26:16;;;;;;;4.83;4.43;;;;;;;;;;5072402;28;20475;-50
2022/09/23 07:28:43;;;;;;;5.90;4.90;;;;;;;;;;5071304;28;20524;-51
2022/09/23 07:31:12;;;;;;;6.07;4.93;;;;;;;;;;5075516;28;20630;-54
2022/09/23 07:33:42;;;;;;;11.40;4.73;;;;;;;;;;5072381;28;20934;-50
2022/09/23 07:36:11;;;;;;;4.70;4.27;;;;;;;;;;5087452;28;20447;-55
2022/09/23 07:38:39;;;;;;;4.70;3.97;;;;;;;;;;5092493;28;20508;-65
2022/09/23 07:41:08;;;;;;;5.10;4.60;;;;;;;;;;5092424;28;20446;-65
2022/09/23 07:43:34;;;;;;;4.53;4.13;;;;;;;;;;5092621;28;20452;-64
2022/09/23 07:46:02;;;;;;;8.30;3.97;;;;;;;;;;5092484;28;20489;-64
2022/09/23 07:48:30;;;;;;;3.80;3.50;;;;;;;;;;5093304;28;20458;-64
2022/09/23 07:50:58;;;;;;;4.63;3.40;;;;;;;;;;5088730;28;20820;-65
2022/09/23 07:53:25;;;;;;;5.57;4.17;;;;;;;;;;5069989;28;20452;-63
2022/09/23 07:55:54;;;;;;;6.67;3.90;;;;;;;;;;5069844;28;20542;-63
2022/09/23 07:58:21;;;;;;;3.90;3.60;;;;;;;;;;5070413;28;20488;-63
2022/09/23 08:00:52;;;;;;;3.90;3.60;;;;;;;;;;5074681;28;20458;-59
2022/09/23 08:03:19;;;;;;;4.53;3.40;;;;;;;;;;5055585;28;20953;-54
2022/09/23 08:05:46;;;;;;;4.22;3.83;;;;;;;;;;5063882;28;20454;-65
2022/09/23 08:08:13;;;;;;;3.43;3.23;;;;;;;;;;5075933;28;20189;-64
2022/09/23 08:10:41;;;;;;;3.47;3.17;;;;;;;;;;5074323;28;20952;-64
2022/09/23 08:13:10;;;;;;;3.83;3.00;;;;;;;;;;5074157;28;20455;-62
2022/09/23 08:15:37;;;;;;;5.53;3.10;;;;;;;;;;5073809;28;20541;-61
2022/09/23 08:18:04;;;;;;;5.00;2.50;;;;;;;;;;5070234;28;20452;-61
2022/09/23 08:20:46;;;;;;;3.00;2.80;;;;;;;;;;5063063;28;20974;-61
2022/09/23 08:23:16;;;;;;;3.63;3.33;;;;;;;;;;5055596;28;20443;-60
2022/09/23 08:25:44;;;;;;;2.90;2.70;;;;;;;;;;5061607;28;20850;-61
2022/09/23 08:28:13;;;;;;;4.93;2.67;;;;;;;;;;5069497;28;20451;-61
2022/09/23 08:30:40;;;;;;;2.70;2.50;;;;;;;;;;5073725;28;20451;-61
2022/09/23 08:33:06;;;;;;;3.40;2.87;;;;;;;;;;5075450;28;20459;-61
2022/09/23 08:35:33;;;;;;;2.70;2.60;;;;;;;;;;5075602;28;20462;-61
2022/09/23 08:38:00;;;;;;;2.93;2.73;;;;;;;;;;5075607;28;20451;-61
2022/09/23 08:40:27;;;;;;;3.60;2.97;;;;;;;;;;5073083;28;20455;-60
2022/09/23 08:42:54;;;;;;;2.67;2.47;;;;;;;;;;5074674;28;20452;-60
2022/09/23 08:45:25;;;;;;;2.70;2.60;;;;;;;;;;5073732;28;20452;-59
2022/09/23 08:47:55;;;;;;;5.57;3.20;;;;;;;;;;5074076;28;20490;-60
2022/09/23 08:50:23;;;;;;;2.67;2.40;;;;;;;;;;5073755;28;20466;-60
2022/09/23 08:52:51;;;;;;;2.70;2.50;;;;;;;;;;5074932;28;20454;-60
2022/09/23 08:55:19;;;;;;;2.37;2.27;;;;;;;;;;5075048;28;20447;-62
2022/09/23 08:57:49;;;;;;;2.50;2.30;;;;;;;;;;5070385;28;20463;-60
2022/09/23 09:00:20;;;;;;;2.30;2.10;;;;;;;;;;5053919;28;20459;-63
2022/09/23 09:02:49;;;;;;;2.97;2.67;;;;;;;;;;5065429;28;20447;-64
2022/09/23 09:05:18;;;;;;;3.90;2.40;;;;;;;;;;5074029;28;20454;-62
2022/09/23 09:07:45;;;;;;;4.33;2.40;;;;;;;;;;5074324;28;20451;-63
2022/09/23 09:10:17;;;;;;;2.50;2.30;;;;;;;;;;5074693;28;20447;-59
2022/09/23 09:12:45;;;;;;;3.10;2.20;;;;;;;;;;5058309;28;20460;-58
2022/09/23 09:15:13;;;;;;;2.00;1.90;;;;;;;;;;5054869;28;20448;-54
2022/09/23 09:17:47;;;;;;;2.30;2.10;;;;;;;;;;5054641;28;20924;-61
2022/09/23 09:20:22;;;;;;;2.37;2.17;;;;;;;;;;5073126;28;20455;-61
2022/09/23 09:22:52;;;;;;;2.50;2.23;;;;;;;;;;5072577;28;20882;-61
2022/09/23 09:25:23;;;;;;;4.57;2.13;;;;;;;;;;5063434;28;21005;-60
2022/09/23 09:27:50;;;;;;;1.93;1.83;;;;;;;;;;5074484;28;20462;-60
2022/09/23 09:30:18;;;;;;;4.30;2.43;;;;;;;;;;5074822;28;20454;-59
2022/09/23 09:32:47;;;;;;;5.03;2.10;;;;;;;;;;5054822;28;20462;-58
2022/09/23 09:35:19;;;;;;;1.93;1.83;;;;;;;;;;5054238;28;20444;-57
2022/09/23 09:37:48;;;;;;;2.43;2.23;;;;;;;;;;5054047;28;20456;-59
2022/09/23 09:40:16;;;;;;;3.40;3.13;;;;;;;;;;5055629;28;20453;-60
2022/09/23 09:42:45;;;;;;;2.33;2.13;;;;;;;;;;5056660;28;20464;-60
2022/09/23 09:45:18;;;;;;;2.83;2.63;;;;;;;;;;5060997;28;20958;-59
2022/09/23 09:47:47;;;;;;;3.43;2.90;;;;;;;;;;5072844;28;20478;-59
2022/09/23 09:50:20;;;;;;;4.73;2.73;;;;;;;;;;5073786;28;20454;-59
2022/09/23 09:52:49;;;;;;;2.57;2.37;;;;;;;;;;5073862;28;20954;-60
2022/09/23 09:55:18;;;;;;;5.03;2.83;;;;;;;;;;5073760;28;20960;-59
2022/09/23 09:57:46;;;;;;;3.03;2.80;;;;;;;;;;5073502;28;20454;-60
2022/09/23 10:00:19;;;;;;;3.13;2.93;;;;;;;;;;5073191;28;20496;-60
2022/09/23 10:02:48;;;;;;;5.60;3.00;;;;;;;;;;5071270;28;20439;-59
2022/09/23 10:05:24;;;;;;;3.33;2.30;;;;;;;;;;5073327;28;20444;-59
2022/09/23 10:07:53;;;;;;;2.80;2.60;;;;;;;;;;5073456;28;20479;-59
2022/09/23 10:10:22;;;;;;;2.90;2.70;;;;;;;;;;5073549;28;20481;-59
2022/09/23 10:12:51;;;;;;;2.97;2.70;;;;;;;;;;5073199;28;20826;-60
2022/09/23 10:15:27;;;;;;;2.10;2.00;;;;;;;;;;5073331;28;20451;-60
2022/09/23 10:17:54;;;;;;;3.00;2.70;;;;;;;;;;5073395;28;20871;-59
2022/09/23 10:20:21;;;;;;;2.77;2.57;;;;;;;;;;5073413;28;20447;-61
2022/09/23 10:22:48;;;;;;;3.30;3.00;;;;;;;;;;5073043;28;20873;-59
2022/09/23 10:25:19;;;;;;;5.40;2.60;;;;;;;;;;5063130;28;20480;-59
2022/09/23 10:27:46;;;;;;;2.97;2.50;;;;;;;;;;5052313;28;20631;-59
2022/09/23 10:30:21;;;;;;;2.80;2.60;;;;;;;;;;5052965;28;20453;-58
2022/09/23 10:32:48;;;;;;;3.33;3.03;;;;;;;;;;5053416;28;20460;-58
2022/09/23 10:35:17;;;;;;;2.53;2.33;;;;;;;;;;5053170;28;20487;-58
2022/09/23 10:37:47;;;;;;;2.20;2.00;;;;;;;;;;5053159;28;20456;-58
2022/09/23 10:48:51;;;;;;;1.60;1.50;;;;;;;;;;5053057;28;20508;-59
2022/09/23 10:51:22;;;;;;;3.73;1.80;;;;;;;;;;5052985;28;20448;-59
2022/09/23 10:53:54;;;;;;;2.10;2.00;;;;;;;;;;5053003;28;20476;-59
2022/09/23 10:56:27;;;;;;;2.07;1.80;;;;;;;;;;5052852;28;20448;-60
2022/09/23 10:59:13;;;;;;;1.80;1.60;;;;;;;;;;5052752;28;20508;-60
2022/09/23 11:01:43;;;;;;;1.80;1.70;;;;;;;;;;5045942;28;20456;-60
2022/09/23 11:04:18;;;;;;;2.43;2.23;;;;;;;;;;5052737;28;20785;-60
2022/09/23 11:06:51;;;;;;;1.90;1.80;;;;;;;;;;5052466;28;20484;-59
2022/09/23 11:09:25;;;;;;;1.90;1.80;;;;;;;;;;5052726;28;20478;-60
2022/09/23 11:12:01;;;;;;;1.80;1.70;;;;;;;;;;5052772;28;20874;-60
2022/09/23 11:14:43;;;;;;;1.47;1.37;;;;;;;;;;5052584;28;20535;-59
2022/09/23 11:17:17;;;;;;;3.70;2.10;;;;;;;;;;5050998;28;20878;-59
2022/09/23 11:19:59;;;;;;;1.50;1.40;;;;;;;;;;5052502;28;20448;-59
2022/09/23 11:22:34;;;;;;;1.53;1.43;;;;;;;;;;5052359;28;20840;-60
2022/09/23 11:25:08;;;;;;;5.10;2.00;;;;;;;;;;5051961;28;20452;-59
2022/09/23 11:27:44;;;;;;;1.40;1.30;;;;;;;;;;5052504;28;20484;-59
2022/09/23 11:30:13;;;;;;;1.60;1.50;;;;;;;;;;5052551;28;20450;-59
2022/09/23 11:32:49;;;;;;;2.73;1.73;;;;;;;;;;5052655;28;20452;-60
2022/09/23 11:35:19;;;;;;;4.70;1.70;;;;;;;;;;5052532;28;20454;-60
2022/09/23 11:37:47;;;;;;;1.83;1.70;;;;;;;;;;5052403;28;20932;-60
2022/09/23 11:40:16;;;;;;;2.10;1.90;;;;;;;;;;5052207;28;20489;-60
2022/09/23 11:42:49;;;;;;;1.87;1.77;;;;;;;;;;5052243;28;20459;-59
2022/09/23 11:45:18;;;;;;;2.90;2.00;;;;;;;;;;5052574;28;20476;-60
2022/09/23 11:47:47;;;;;;;1.83;1.60;;;;;;;;;;5052401;28;20878;-59
2022/09/23 11:50:17;;;;;;;1.60;1.47;;;;;;;;;;5052372;28;20495;-59
2022/09/23 11:52:46;;;;;;;2.30;1.60;;;;;;;;;;5052294;28;20465;-59
2022/09/23 11:55:16;;;;;;;1.70;1.60;;;;;;;;;;5052143;28;20456;-59
2022/09/23 11:57:46;;;;;;;3.40;1.93;;;;;;;;;;5057317;28;20461;-59
2022/09/23 12:00:17;;;;;;;3.50;1.60;;;;;;;;;;5069889;28;20508;-59
2022/09/23 12:02:50;;;;;;;2.50;1.80;;;;;;;;;;5072282;28;20891;-59
2022/09/23 12:05:21;;;;;;;4.67;1.97;;;;;;;;;;5072117;28;20462;-59
2022/09/23 12:07:53;;;;;;;1.50;1.40;;;;;;;;;;5072017;28;20482;-59
2022/09/23 12:10:20;;;;;;;2.07;1.87;;;;;;;;;;5071329;28;20508;-59
2022/09/23 12:12:51;;;;;;;1.87;1.43;;;;;;;;;;5072246;28;20447;-59
2022/09/23 12:15:25;;;;;;;2.70;1.43;;;;;;;;;;5072110;28;20454;-58
2022/09/23 12:18:04;;;;;;;1.30;1.20;;;;;;;;;;5071974;28;20966;-59
2022/09/23 12:20:47;;;;;;;1.47;1.37;;;;;;;;;;5072134;28;20483;-60
2022/09/23 12:23:19;;;;;;;1.50;1.40;;;;;;;;;;5070625;28;20466;-59
2022/09/23 12:25:47;;;;;;;2.50;1.70;;;;;;;;;;5072138;28;20780;-59
2022/09/23 12:28:18;;;;;;;1.47;1.37;;;;;;;;;;5071910;28;20582;-59
2022/09/23 12:30:47;;;;;;;2.53;1.60;;;;;;;;;;5071989;28;20470;-59
2022/09/23 12:33:20;;;;;;;1.60;1.50;;;;;;;;;;5072065;28;20475;-59
2022/09/23 12:35:47;;;;;;;1.60;1.40;;;;;;;;;;5074650;28;20443;-59
2022/09/23 12:38:18;;;;;;;1.53;1.43;;;;;;;;;;5075538;28;20446;-59
2022/09/23 12:40:45;;;;;;;2.30;1.40;;;;;;;;;;5075540;28;20451;-60
2022/09/23 12:43:17;;;;;;;1.60;1.50;;;;;;;;;;5075335;28;20443;-59
2022/09/23 12:45:44;;;;;;;5.13;1.70;;;;;;;;;;5075399;28;20784;-59
2022/09/23 12:48:43;;;;;;;1.30;1.20;;;;;;;;;;5075317;28;20483;-59
2022/09/23 12:51:15;;;;;;;2.00;1.53;;;;;;;;;;5075163;28;20470;-60
2022/09/23 12:53:58;;;;;;;1.43;1.33;;;;;;;;;;5075090;28;20938;-59
2022/09/23 12:56:27;;;;;;;1.60;1.37;;;;;;;;;;5075295;28;20449;-59
2022/09/23 12:58:57;;;;;;;2.07;1.53;;;;;;;;;;5075157;28;20542;-60
2022/09/23 13:01:25;;;;;;;1.37;1.27;;;;;;;;;;5075188;28;20542;-60
2022/09/23 13:06:40;;;;;;;1.43;1.33;;;;;;;;;;5074827;28;20525;-60
2022/09/23 13:09:08;;;;;;;2.43;1.47;;;;;;;;;;5074940;28;20454;-60
2022/09/23 13:11:39;;;;;;;1.70;1.53;;;;;;;;;;5074914;28;20458;-60
2022/09/23 13:14:06;;;;;;;1.70;1.57;;;;;;;;;;5074838;28;20451;-60
2022/09/23 13:16:35;;;;;;;1.67;1.57;;;;;;;;;;5074935;28;20447;-60
2022/09/23 13:19:04;;;;;;;1.20;1.10;;;;;;;;;;5074691;28;20447;-60
2022/09/23 13:21:50;;;;;;;1.53;1.03;;;;;;;;;;5074606;28;20521;-60
2022/09/23 13:24:19;;;;;;;1.63;1.53;;;;;;;;;;5074612;28;20439;-60
2022/09/23 13:26:46;;;;;;;1.37;1.27;;;;;;;;;;5074318;28;20505;-60
2022/09/23 13:29:17;;;;;;;1.57;1.30;;;;;;;;;;5074661;28;20811;-60
2022/09/23 13:31:45;;;;;;;1.30;1.10;;;;;;;;;;5074616;28;20455;-60
2022/09/23 13:34:15;;;;;;;1.47;1.37;;;;;;;;;;5074380;28;20443;-59
2022/09/23 13:36:45;;;;;;;2.03;1.90;;;;;;;;;;5074278;28;20802;-59
2022/09/23 13:39:16;;;;;;;1.30;1.20;;;;;;;;;;5073945;28;20444;-59
2022/09/23 13:41:43;;;;;;;1.80;1.30;;;;;;;;;;5074635;28;20451;-59
2022/09/23 13:44:15;;;;;;;1.40;1.30;;;;;;;;;;5074013;28;20462;-59
2022/09/23 13:46:44;;;;;;;2.13;1.43;;;;;;;;;;5073468;28;20452;-59
2022/09/23 13:49:20;;;;;;;1.87;1.20;;;;;;;;;;5074080;28;20974;-59
2022/09/23 13:51:47;;;;;;;2.30;1.13;;;;;;;;;;5074075;28;20533;-60
2022/09/23 13:54:27;;;;;;;2.10;1.33;;;;;;;;;;5073970;28;20443;-60
2022/09/23 13:56:55;;;;;;;1.70;1.60;;;;;;;;;;5074020;28;20447;-60
2022/09/23 13:59:25;;;;;;;1.17;1.03;;;;;;;;;;5073988;28;20455;-60
2022/09/23 14:02:02;;;;;;;1.33;1.23;;;;;;;;;;5073803;28;20443;-60
2022/09/23 14:04:31;;;;;;;1.40;1.30;;;;;;;;;;5074061;28;20791;-60
2022/09/23 14:06:58;;;;;;;3.57;1.70;;;;;;;;;;5073868;28;20450;-60
2022/09/23 14:09:27;;;;;;;1.30;1.20;;;;;;;;;;5073809;28;20458;-60
2022/09/23 14:11:55;;;;;;;1.33;1.23;;;;;;;;;;5073832;28;20803;-60
2022/09/23 14:14:22;;;;;;;1.20;1.10;;;;;;;;;;5073688;28;20456;-60
2022/09/23 14:16:50;;;;;;;1.10;1.00;;;;;;;;;;5073409;28;20452;-60
2022/09/23 14:19:18;;;;;;;1.00;0.90;;;;;;;;;;5073790;28;20815;-60
2022/09/23 14:21:48;;;;;;;2.30;1.27;;;;;;;;;;5073386;28;20476;-60
2022/09/23 14:24:15;;;;;;;1.17;1.07;;;;;;;;;;5073607;28;20861;-59
2022/09/23 14:26:43;;;;;;;1.97;1.20;;;;;;;;;;5073266;28;20475;-60
2022/09/23 14:29:13;;;;;;;1.00;0.90;;;;;;;;;;5073731;28;20483;-60
2022/09/23 14:31:41;;;;;;;1.83;1.10;;;;;;;;;;5073283;28;20939;-60
2022/09/23 14:34:23;;;;;;;1.83;1.10;;;;;;;;;;5073275;28;20462;-60
2022/09/23 14:39:35;;;;;;;1.40;1.30;;;;;;;;;;5073110;28;20489;-59
2022/09/23 14:42:05;;;;;;;2.23;1.40;;;;;;;;;;5073262;28;20799;-60
2022/09/23 14:44:34;;;;;;;1.43;1.33;;;;;;;;;;5074000;28;20447;-58
2022/09/23 14:47:01;;;;;;;1.23;1.13;;;;;;;;;;5072962;28;20447;-61
2022/09/23 14:49:28;;;;;;;3.87;1.57;;;;;;;;;;5073058;28;20483;-61
2022/09/23 14:51:59;;;;;;;1.20;1.10;;;;;;;;;;5072798;28;20451;-61
2022/09/23 14:54:34;;;;;;;1.30;1.20;;;;;;;;;;5073199;28;20440;-61
2022/09/23 14:57:04;;;;;;;1.40;1.30;;;;;;;;;;5073070;28;20861;-61
2022/09/23 14:59:33;;;;;;;1.93;1.13;;;;;;;;;;5072133;28;20447;-60
2022/09/23 15:02:00;;;;;;;1.20;1.10;;;;;;;;;;5072856;28;20452;-61
2022/09/23 15:04:29;;;;;;;2.87;1.17;;;;;;;;;;5072785;28;20447;-60
2022/09/23 15:06:59;;;;;;;1.33;1.23;;;;;;;;;;5072637;28;20451;-61
2022/09/23 15:09:27;;;;;;;1.23;1.13;;;;;;;;;;5073166;28;20454;-61
2022/09/23 15:11:57;;;;;;;1.67;1.40;;;;;;;;;;5072760;28;20493;-60